sensor_id;sensor_type;location;lat;lon;timestamp;temperature;humidity
10300;DHT22;5195;48.562;9.192;2023-07-31T00:00:32;19.70;49.30
10300;DHT22;5195;48.562;9.192;2023-07-31T00:02:58;19.90;49.00
10300;DHT22;5195;48.562;9.192;2023-07-31T00:05:24;19.70;49.50
10300;DHT22;5195;48.562;9.192;2023-07-31T00:07:49;19.30;50.20
10300;DHT22;5195;48.562;9.192;2023-07-31T00:10:15;18.90;50.70
10300;DHT22;5195;48.562;9.192;2023-07-31T00:12:42;19.00;50.60
10300;DHT22;5195;48.562;9.192;2023-07-31T00:15:06;18.90;50.80
10300;DHT22;5195;48.562;9.192;2023-07-31T00:17:32;19.00;50.90
10300;DHT22;5195;48.562;9.192;2023-07-31T00:19:58;18.70;51.90
10300;DHT22;5195;48.562;9.192;2023-07-31T00:22:23;18.60;51.80
10300;DHT22;5195;48.562;9.192;2023-07-31T00:24:49;18.80;51.80
10300;DHT22;5195;48.562;9.192;2023-07-31T00:27:15;18.70;51.90
10300;DHT22;5195;48.562;9.192;2023-07-31T00:29:40;18.50;52.20
10300;DHT22;5195;48.562;9.192;2023-07-31T00:32:06;18.30;52.60
10300;DHT22;5195;48.562;9.192;2023-07-31T00:34:32;18.10;52.90
10300;DHT22;5195;48.562;9.192;2023-07-31T00:36:57;18.30;52.50
10300;DHT22;5195;48.562;9.192;2023-07-31T00:39:24;18.50;52.00
10300;DHT22;5195;48.562;9.192;2023-07-31T00:41:49;18.50;52.00
10300;DHT22;5195;48.562;9.192;2023-07-31T00:44:15;18.80;51.40
10300;DHT22;5195;48.562;9.192;2023-07-31T00:46:40;18.70;51.60
10300;DHT22;5195;48.562;9.192;2023-07-31T00:49:06;18.80;51.20
10300;DHT22;5195;48.562;9.192;2023-07-31T00:51:31;18.60;51.70
10300;DHT22;5195;48.562;9.192;2023-07-31T00:53:57;18.60;51.90
10300;DHT22;5195;48.562;9.192;2023-07-31T00:56:23;18.50;52.20
10300;DHT22;5195;48.562;9.192;2023-07-31T00:58:48;18.60;52.00
10300;DHT22;5195;48.562;9.192;2023-07-31T01:01:14;18.50;52.40
10300;DHT22;5195;48.562;9.192;2023-07-31T01:03:40;18.80;51.70
10300;DHT22;5195;48.562;9.192;2023-07-31T01:06:17;18.80;51.80
10300;DHT22;5195;48.562;9.192;2023-07-31T01:08:42;18.60;52.10
10300;DHT22;5195;48.562;9.192;2023-07-31T01:11:07;18.30;53.00
10300;DHT22;5195;48.562;9.192;2023-07-31T01:13:32;18.40;52.90
10300;DHT22;5195;48.562;9.192;2023-07-31T01:15:57;18.30;53.00
10300;DHT22;5195;48.562;9.192;2023-07-31T01:18:23;18.40;52.60
10300;DHT22;5195;48.562;9.192;2023-07-31T01:20:52;18.30;53.00
10300;DHT22;5195;48.562;9.192;2023-07-31T01:23:35;18.30;52.40
10300;DHT22;5195;48.562;9.192;2023-07-31T01:26:14;18.30;52.40
10300;DHT22;5195;48.562;9.192;2023-07-31T01:28:40;18.00;53.00
10300;DHT22;5195;48.562;9.192;2023-07-31T01:31:05;17.80;53.60
10300;DHT22;5195;48.562;9.192;2023-07-31T01:33:30;17.90;53.70
10300;DHT22;5195;48.562;9.192;2023-07-31T01:35:56;18.20;53.00
10300;DHT22;5195;48.562;9.192;2023-07-31T01:38:21;18.50;52.20
10300;DHT22;5195;48.562;9.192;2023-07-31T01:40:50;18.40;52.60
10300;DHT22;5195;48.562;9.192;2023-07-31T01:43:12;18.40;51.80
10300;DHT22;5195;48.562;9.192;2023-07-31T01:45:38;18.60;51.70
10300;DHT22;5195;48.562;9.192;2023-07-31T01:48:04;18.10;52.80
10300;DHT22;5195;48.562;9.192;2023-07-31T01:50:30;18.10;52.80
10300;DHT22;5195;48.562;9.192;2023-07-31T01:52:57;17.90;53.70
10300;DHT22;5195;48.562;9.192;2023-07-31T01:55:22;17.70;54.10
10300;DHT22;5195;48.562;9.192;2023-07-31T01:57:48;17.50;54.50
10300;DHT22;5195;48.562;9.192;2023-07-31T02:00:13;17.30;54.90
10300;DHT22;5195;48.562;9.192;2023-07-31T02:02:39;17.20;55.20
10300;DHT22;5195;48.562;9.192;2023-07-31T02:05:05;17.10;55.50
10300;DHT22;5195;48.562;9.192;2023-07-31T02:07:30;17.40;55.40
10300;DHT22;5195;48.562;9.192;2023-07-31T02:09:56;17.80;53.80
10300;DHT22;5195;48.562;9.192;2023-07-31T02:12:21;17.80;53.90
10300;DHT22;5195;48.562;9.192;2023-07-31T02:14:48;17.40;54.80
10300;DHT22;5195;48.562;9.192;2023-07-31T02:17:13;17.40;54.80
10300;DHT22;5195;48.562;9.192;2023-07-31T02:19:39;17.60;54.00
10300;DHT22;5195;48.562;9.192;2023-07-31T02:22:04;18.00;53.20
10300;DHT22;5195;48.562;9.192;2023-07-31T02:24:31;18.00;53.40
10300;DHT22;5195;48.562;9.192;2023-07-31T02:26:56;18.00;52.80
10300;DHT22;5195;48.562;9.192;2023-07-31T02:29:22;17.90;53.90
10300;DHT22;5195;48.562;9.192;2023-07-31T02:31:47;17.70;53.90
10300;DHT22;5195;48.562;9.192;2023-07-31T02:34:13;17.80;53.20
10300;DHT22;5195;48.562;9.192;2023-07-31T02:36:39;17.90;53.90
10300;DHT22;5195;48.562;9.192;2023-07-31T02:39:05;17.90;53.20
10300;DHT22;5195;48.562;9.192;2023-07-31T02:41:30;17.90;53.50
10300;DHT22;5195;48.562;9.192;2023-07-31T02:43:56;17.70;54.10
10300;DHT22;5195;48.562;9.192;2023-07-31T02:46:21;17.40;54.40
10300;DHT22;5195;48.562;9.192;2023-07-31T02:48:47;17.60;53.90
10300;DHT22;5195;48.562;9.192;2023-07-31T02:51:13;18.00;52.90
10300;DHT22;5195;48.562;9.192;2023-07-31T02:53:38;18.30;52.50
10300;DHT22;5195;48.562;9.192;2023-07-31T02:56:04;18.20;53.00
10300;DHT22;5195;48.562;9.192;2023-07-31T02:58:29;18.20;52.50
10300;DHT22;5195;48.562;9.192;2023-07-31T03:00:57;18.20;52.40
10300;DHT22;5195;48.562;9.192;2023-07-31T03:03:21;18.10;52.30
10300;DHT22;5195;48.562;9.192;2023-07-31T03:05:47;17.70;54.00
10300;DHT22;5195;48.562;9.192;2023-07-31T03:08:14;17.80;53.30
10300;DHT22;5195;48.562;9.192;2023-07-31T03:10:39;17.80;52.60
10300;DHT22;5195;48.562;9.192;2023-07-31T03:13:05;17.80;53.00
10300;DHT22;5195;48.562;9.192;2023-07-31T03:15:32;17.60;53.60
10300;DHT22;5195;48.562;9.192;2023-07-31T03:17:57;17.30;53.90
10300;DHT22;5195;48.562;9.192;2023-07-31T03:20:23;17.60;53.40
10300;DHT22;5195;48.562;9.192;2023-07-31T03:22:48;17.90;52.60
10300;DHT22;5195;48.562;9.192;2023-07-31T03:25:14;17.90;53.00
10300;DHT22;5195;48.562;9.192;2023-07-31T03:27:40;17.90;52.70
10300;DHT22;5195;48.562;9.192;2023-07-31T03:30:06;17.90;52.70
10300;DHT22;5195;48.562;9.192;2023-07-31T03:32:32;17.70;53.30
10300;DHT22;5195;48.562;9.192;2023-07-31T03:34:58;17.80;52.10
10300;DHT22;5195;48.562;9.192;2023-07-31T03:37:24;17.90;52.10
10300;DHT22;5195;48.562;9.192;2023-07-31T03:39:49;18.00;52.20
10300;DHT22;5195;48.562;9.192;2023-07-31T03:42:16;17.70;53.10
10300;DHT22;5195;48.562;9.192;2023-07-31T03:44:42;17.70;53.10
10300;DHT22;5195;48.562;9.192;2023-07-31T03:47:08;17.50;53.50
10300;DHT22;5195;48.562;9.192;2023-07-31T03:49:33;17.70;52.60
10300;DHT22;5195;48.562;9.192;2023-07-31T03:51:59;18.10;52.10
10300;DHT22;5195;48.562;9.192;2023-07-31T03:54:25;18.30;51.40
10300;DHT22;5195;48.562;9.192;2023-07-31T03:56:51;17.90;52.60
10300;DHT22;5195;48.562;9.192;2023-07-31T03:59:17;17.70;53.20
10300;DHT22;5195;48.562;9.192;2023-07-31T04:01:43;17.70;53.20
10300;DHT22;5195;48.562;9.192;2023-07-31T04:04:08;17.50;53.60
10300;DHT22;5195;48.562;9.192;2023-07-31T04:06:34;17.40;54.00
10300;DHT22;5195;48.562;9.192;2023-07-31T04:09:00;17.30;54.20
10300;DHT22;5195;48.562;9.192;2023-07-31T04:11:26;18.00;52.70
10300;DHT22;5195;48.562;9.192;2023-07-31T04:13:51;18.00;52.30
10300;DHT22;5195;48.562;9.192;2023-07-31T04:16:18;17.80;53.10
10300;DHT22;5195;48.562;9.192;2023-07-31T04:18:43;17.80;53.00
10300;DHT22;5195;48.562;9.192;2023-07-31T04:21:10;17.70;53.50
10300;DHT22;5195;48.562;9.192;2023-07-31T04:23:36;17.90;52.10
10300;DHT22;5195;48.562;9.192;2023-07-31T04:26:01;18.30;51.40
10300;DHT22;5195;48.562;9.192;2023-07-31T04:28:27;18.30;51.80
10300;DHT22;5195;48.562;9.192;2023-07-31T04:30:52;18.40;51.10
10300;DHT22;5195;48.562;9.192;2023-07-31T04:33:19;18.50;51.30
10300;DHT22;5195;48.562;9.192;2023-07-31T04:35:51;18.40;51.20
10300;DHT22;5195;48.562;9.192;2023-07-31T04:38:16;18.40;51.70
10300;DHT22;5195;48.562;9.192;2023-07-31T04:40:42;18.50;51.20
10300;DHT22;5195;48.562;9.192;2023-07-31T04:43:08;18.40;52.40
10300;DHT22;5195;48.562;9.192;2023-07-31T04:45:34;18.50;51.30
10300;DHT22;5195;48.562;9.192;2023-07-31T04:48:00;18.50;51.90
10300;DHT22;5195;48.562;9.192;2023-07-31T04:50:25;18.60;51.20
10300;DHT22;5195;48.562;9.192;2023-07-31T04:52:51;18.90;50.80
10300;DHT22;5195;48.562;9.192;2023-07-31T04:55:16;19.20;50.30
10300;DHT22;5195;48.562;9.192;2023-07-31T04:57:42;19.00;50.80
10300;DHT22;5195;48.562;9.192;2023-07-31T05:00:08;18.70;51.50
10300;DHT22;5195;48.562;9.192;2023-07-31T05:02:33;18.80;50.90
10300;DHT22;5195;48.562;9.192;2023-07-31T05:04:59;18.80;51.50
10300;DHT22;5195;48.562;9.192;2023-07-31T05:07:25;19.10;50.30
10300;DHT22;5195;48.562;9.192;2023-07-31T05:09:51;19.10;50.30
10300;DHT22;5195;48.562;9.192;2023-07-31T05:12:16;19.00;50.90
10300;DHT22;5195;48.562;9.192;2023-07-31T05:14:42;19.10;50.70
10300;DHT22;5195;48.562;9.192;2023-07-31T05:17:08;19.30;50.00
10300;DHT22;5195;48.562;9.192;2023-07-31T05:19:33;19.50;49.50
10300;DHT22;5195;48.562;9.192;2023-07-31T05:21:59;19.70;49.30
10300;DHT22;5195;48.562;9.192;2023-07-31T05:24:29;19.50;50.10
10300;DHT22;5195;48.562;9.192;2023-07-31T05:26:54;19.40;49.60
10300;DHT22;5195;48.562;9.192;2023-07-31T05:29:20;19.60;49.30
10300;DHT22;5195;48.562;9.192;2023-07-31T05:31:46;19.90;49.00
10300;DHT22;5195;48.562;9.192;2023-07-31T05:34:12;19.90;48.90
10300;DHT22;5195;48.562;9.192;2023-07-31T05:36:37;19.70;50.40
10300;DHT22;5195;48.562;9.192;2023-07-31T05:39:03;19.40;50.60
10300;DHT22;5195;48.562;9.192;2023-07-31T05:41:29;19.20;51.30
10300;DHT22;5195;48.562;9.192;2023-07-31T05:43:54;19.30;50.10
10300;DHT22;5195;48.562;9.192;2023-07-31T05:46:20;19.70;49.80
10300;DHT22;5195;48.562;9.192;2023-07-31T05:48:45;20.00;49.30
10300;DHT22;5195;48.562;9.192;2023-07-31T05:51:11;19.90;50.00
10300;DHT22;5195;48.562;9.192;2023-07-31T05:53:37;19.90;49.50
10300;DHT22;5195;48.562;9.192;2023-07-31T05:56:02;19.90;50.20
10300;DHT22;5195;48.562;9.192;2023-07-31T05:58:28;20.00;49.70
10300;DHT22;5195;48.562;9.192;2023-07-31T06:00:55;20.00;51.10
10300;DHT22;5195;48.562;9.192;2023-07-31T06:03:21;19.90;51.10
10300;DHT22;5195;48.562;9.192;2023-07-31T06:05:47;19.90;51.60
10300;DHT22;5195;48.562;9.192;2023-07-31T06:08:12;20.20;51.50
10300;DHT22;5195;48.562;9.192;2023-07-31T06:10:38;20.20;51.60
10300;DHT22;5195;48.562;9.192;2023-07-31T06:13:04;20.40;52.00
10300;DHT22;5195;48.562;9.192;2023-07-31T06:15:31;20.40;51.70
10300;DHT22;5195;48.562;9.192;2023-07-31T06:17:56;20.70;50.70
10300;DHT22;5195;48.562;9.192;2023-07-31T06:20:22;20.70;51.00
10300;DHT22;5195;48.562;9.192;2023-07-31T06:22:48;20.80;50.60
10300;DHT22;5195;48.562;9.192;2023-07-31T06:25:13;20.70;51.00
10300;DHT22;5195;48.562;9.192;2023-07-31T06:27:39;20.50;51.50
10300;DHT22;5195;48.562;9.192;2023-07-31T06:30:05;20.60;50.90
10300;DHT22;5195;48.562;9.192;2023-07-31T06:32:30;20.60;51.20
10300;DHT22;5195;48.562;9.192;2023-07-31T06:34:57;20.60;50.80
10300;DHT22;5195;48.562;9.192;2023-07-31T06:37:22;20.60;50.80
10300;DHT22;5195;48.562;9.192;2023-07-31T06:39:48;20.70;50.70
10300;DHT22;5195;48.562;9.192;2023-07-31T06:42:13;21.00;50.00
10300;DHT22;5195;48.562;9.192;2023-07-31T06:44:39;21.00;50.70
10300;DHT22;5195;48.562;9.192;2023-07-31T06:47:05;21.40;49.70
10300;DHT22;5195;48.562;9.192;2023-07-31T06:49:30;22.10;48.50
10300;DHT22;5195;48.562;9.192;2023-07-31T06:51:56;22.70;49.70
10300;DHT22;5195;48.562;9.192;2023-07-31T06:54:22;23.30;46.60
10300;DHT22;5195;48.562;9.192;2023-07-31T06:56:48;23.30;46.60
10300;DHT22;5195;48.562;9.192;2023-07-31T06:59:13;23.80;45.70
10300;DHT22;5195;48.562;9.192;2023-07-31T07:01:39;24.30;45.00
10300;DHT22;5195;48.562;9.192;2023-07-31T07:04:04;24.30;45.80
10300;DHT22;5195;48.562;9.192;2023-07-31T07:06:30;24.20;46.60
10300;DHT22;5195;48.562;9.192;2023-07-31T07:08:56;24.00;47.00
10300;DHT22;5195;48.562;9.192;2023-07-31T07:11:22;23.90;47.30
10300;DHT22;5195;48.562;9.192;2023-07-31T07:13:48;24.00;45.10
10300;DHT22;5195;48.562;9.192;2023-07-31T07:16:13;24.00;45.80
10300;DHT22;5195;48.562;9.192;2023-07-31T07:18:39;23.70;46.50
10300;DHT22;5195;48.562;9.192;2023-07-31T07:21:05;23.80;45.20
10300;DHT22;5195;48.562;9.192;2023-07-31T07:23:30;23.80;46.10
10300;DHT22;5195;48.562;9.192;2023-07-31T07:25:56;24.00;45.20
10300;DHT22;5195;48.562;9.192;2023-07-31T07:28:21;24.00;45.70
10300;DHT22;5195;48.562;9.192;2023-07-31T07:30:50;24.10;44.70
10300;DHT22;5195;48.562;9.192;2023-07-31T07:33:15;24.30;43.70
10300;DHT22;5195;48.562;9.192;2023-07-31T07:35:42;23.90;45.30
10300;DHT22;5195;48.562;9.192;2023-07-31T07:38:08;23.90;44.90
10300;DHT22;5195;48.562;9.192;2023-07-31T07:40:38;23.80;44.80
10300;DHT22;5195;48.562;9.192;2023-07-31T07:43:00;23.80;45.80
10300;DHT22;5195;48.562;9.192;2023-07-31T07:45:25;23.90;45.00
10300;DHT22;5195;48.562;9.192;2023-07-31T07:47:51;24.00;44.10
10300;DHT22;5195;48.562;9.192;2023-07-31T07:50:17;24.00;43.80
10300;DHT22;5195;48.562;9.192;2023-07-31T07:52:43;24.00;43.80
10300;DHT22;5195;48.562;9.192;2023-07-31T07:55:09;24.40;43.30
10300;DHT22;5195;48.562;9.192;2023-07-31T07:57:35;24.40;43.30
10300;DHT22;5195;48.562;9.192;2023-07-31T08:00:00;24.60;44.10
10300;DHT22;5195;48.562;9.192;2023-07-31T08:02:26;25.00;43.60
10300;DHT22;5195;48.562;9.192;2023-07-31T08:04:51;25.30;43.40
10300;DHT22;5195;48.562;9.192;2023-07-31T08:07:18;25.60;41.90
10300;DHT22;5195;48.562;9.192;2023-07-31T08:09:44;25.60;42.50
10300;DHT22;5195;48.562;9.192;2023-07-31T08:12:09;25.50;41.00
10300;DHT22;5195;48.562;9.192;2023-07-31T08:14:35;25.50;42.50
10300;DHT22;5195;48.562;9.192;2023-07-31T08:17:01;25.40;43.10
10300;DHT22;5195;48.562;9.192;2023-07-31T08:19:26;25.30;43.60
10300;DHT22;5195;48.562;9.192;2023-07-31T08:21:51;25.20;44.00
10300;DHT22;5195;48.562;9.192;2023-07-31T08:24:17;25.60;42.30
10300;DHT22;5195;48.562;9.192;2023-07-31T08:26:43;26.00;40.10
10300;DHT22;5195;48.562;9.192;2023-07-31T08:29:08;26.10;41.10
10300;DHT22;5195;48.562;9.192;2023-07-31T08:31:34;26.20;41.00
10300;DHT22;5195;48.562;9.192;2023-07-31T08:34:00;26.10;40.90
10300;DHT22;5195;48.562;9.192;2023-07-31T08:36:27;26.30;39.30
10300;DHT22;5195;48.562;9.192;2023-07-31T08:38:53;26.60;37.70
10300;DHT22;5195;48.562;9.192;2023-07-31T08:41:18;26.50;39.10
10300;DHT22;5195;48.562;9.192;2023-07-31T08:43:45;26.60;37.50
10300;DHT22;5195;48.562;9.192;2023-07-31T08:46:10;26.80;38.30
10300;DHT22;5195;48.562;9.192;2023-07-31T08:48:37;26.70;38.20
10300;DHT22;5195;48.562;9.192;2023-07-31T08:51:01;26.40;38.90
10300;DHT22;5195;48.562;9.192;2023-07-31T08:53:27;26.20;39.60
10300;DHT22;5195;48.562;9.192;2023-07-31T08:55:53;26.20;39.00
10300;DHT22;5195;48.562;9.192;2023-07-31T08:58:18;26.10;39.20
10300;DHT22;5195;48.562;9.192;2023-07-31T09:00:45;26.10;38.30
10300;DHT22;5195;48.562;9.192;2023-07-31T09:03:15;26.00;39.60
10300;DHT22;5195;48.562;9.192;2023-07-31T09:05:43;26.30;37.90
10300;DHT22;5195;48.562;9.192;2023-07-31T09:08:09;26.30;39.00
10300;DHT22;5195;48.562;9.192;2023-07-31T09:10:34;26.50;38.10
10300;DHT22;5195;48.562;9.192;2023-07-31T09:12:59;26.90;37.90
10300;DHT22;5195;48.562;9.192;2023-07-31T09:15:27;27.40;36.30
10300;DHT22;5195;48.562;9.192;2023-07-31T09:18:01;27.70;36.70
10300;DHT22;5195;48.562;9.192;2023-07-31T09:20:24;27.90;36.00
10300;DHT22;5195;48.562;9.192;2023-07-31T09:22:49;28.20;35.90
10300;DHT22;5195;48.562;9.192;2023-07-31T09:27:48;28.40;35.00
10300;DHT22;5195;48.562;9.192;2023-07-31T09:30:12;28.40;36.40
10300;DHT22;5195;48.562;9.192;2023-07-31T09:32:39;28.60;34.30
10300;DHT22;5195;48.562;9.192;2023-07-31T09:37:40;28.60;33.90
10300;DHT22;5195;48.562;9.192;2023-07-31T09:40:07;28.20;36.00
10300;DHT22;5195;48.562;9.192;2023-07-31T09:42:33;27.80;37.30
10300;DHT22;5195;48.562;9.192;2023-07-31T09:45:09;27.80;37.20
10300;DHT22;5195;48.562;9.192;2023-07-31T09:47:35;27.50;37.80
10300;DHT22;5195;48.562;9.192;2023-07-31T09:50:00;27.50;36.20
10300;DHT22;5195;48.562;9.192;2023-07-31T09:52:26;27.40;37.30
10300;DHT22;5195;48.562;9.192;2023-07-31T09:54:51;27.40;36.80
10300;DHT22;5195;48.562;9.192;2023-07-31T09:57:17;27.30;37.80
10300;DHT22;5195;48.562;9.192;2023-07-31T09:59:43;27.10;36.40
10300;DHT22;5195;48.562;9.192;2023-07-31T10:02:09;27.10;36.40
10300;DHT22;5195;48.562;9.192;2023-07-31T10:04:34;27.20;36.00
10300;DHT22;5195;48.562;9.192;2023-07-31T10:07:01;27.30;37.60
10300;DHT22;5195;48.562;9.192;2023-07-31T10:09:26;27.20;37.40
10300;DHT22;5195;48.562;9.192;2023-07-31T10:11:53;27.20;36.40
10300;DHT22;5195;48.562;9.192;2023-07-31T10:14:19;27.30;38.30
10300;DHT22;5195;48.562;9.192;2023-07-31T10:16:44;27.30;38.00
10300;DHT22;5195;48.562;9.192;2023-07-31T10:19:10;27.50;37.70
10300;DHT22;5195;48.562;9.192;2023-07-31T10:21:37;27.80;36.60
10300;DHT22;5195;48.562;9.192;2023-07-31T10:24:03;28.00;36.30
10300;DHT22;5195;48.562;9.192;2023-07-31T10:26:28;28.00;36.00
10300;DHT22;5195;48.562;9.192;2023-07-31T10:28:54;27.90;36.70
10300;DHT22;5195;48.562;9.192;2023-07-31T10:31:21;27.90;37.40
10300;DHT22;5195;48.562;9.192;2023-07-31T10:33:46;27.90;37.30
10300;DHT22;5195;48.562;9.192;2023-07-31T10:36:19;27.80;38.00
10300;DHT22;5195;48.562;9.192;2023-07-31T10:38:44;27.80;38.20
10300;DHT22;5195;48.562;9.192;2023-07-31T10:41:10;28.10;36.60
10300;DHT22;5195;48.562;9.192;2023-07-31T10:43:37;28.60;37.30
10300;DHT22;5195;48.562;9.192;2023-07-31T10:46:07;28.70;35.60
10300;DHT22;5195;48.562;9.192;2023-07-31T10:48:35;28.70;35.50
10300;DHT22;5195;48.562;9.192;2023-07-31T10:51:01;29.10;36.10
10300;DHT22;5195;48.562;9.192;2023-07-31T10:53:31;29.80;34.80
10300;DHT22;5195;48.562;9.192;2023-07-31T10:55:59;29.70;35.40
10300;DHT22;5195;48.562;9.192;2023-07-31T10:58:24;29.70;35.40
10300;DHT22;5195;48.562;9.192;2023-07-31T11:00:51;29.80;33.70
10300;DHT22;5195;48.562;9.192;2023-07-31T11:03:16;29.90;33.00
10300;DHT22;5195;48.562;9.192;2023-07-31T11:05:59;30.00;34.70
10300;DHT22;5195;48.562;9.192;2023-07-31T11:08:27;30.00;34.80
10300;DHT22;5195;48.562;9.192;2023-07-31T11:11:06;29.60;35.40
10300;DHT22;5195;48.562;9.192;2023-07-31T11:13:28;29.70;33.90
10300;DHT22;5195;48.562;9.192;2023-07-31T11:15:53;30.00;35.00
10300;DHT22;5195;48.562;9.192;2023-07-31T11:18:18;30.20;33.40
10300;DHT22;5195;48.562;9.192;2023-07-31T11:20:44;30.40;32.80
10300;DHT22;5195;48.562;9.192;2023-07-31T11:23:10;30.40;32.00
10300;DHT22;5195;48.562;9.192;2023-07-31T11:25:35;30.20;33.40
10300;DHT22;5195;48.562;9.192;2023-07-31T11:30:31;30.10;32.50
10300;DHT22;5195;48.562;9.192;2023-07-31T11:32:56;29.80;33.50
10300;DHT22;5195;48.562;9.192;2023-07-31T11:35:22;29.50;34.20
10300;DHT22;5195;48.562;9.192;2023-07-31T11:37:48;29.40;33.30
10300;DHT22;5195;48.562;9.192;2023-07-31T11:40:14;29.60;34.40
10300;DHT22;5195;48.562;9.192;2023-07-31T11:42:39;29.50;34.60
10300;DHT22;5195;48.562;9.192;2023-07-31T11:45:05;29.20;35.20
10300;DHT22;5195;48.562;9.192;2023-07-31T11:47:31;29.00;36.00
10300;DHT22;5195;48.562;9.192;2023-07-31T11:49:56;29.10;35.00
10300;DHT22;5195;48.562;9.192;2023-07-31T11:52:21;29.40;34.60
10300;DHT22;5195;48.562;9.192;2023-07-31T11:54:47;29.30;34.30
10300;DHT22;5195;48.562;9.192;2023-07-31T11:57:12;29.20;33.50
10300;DHT22;5195;48.562;9.192;2023-07-31T11:59:38;29.10;34.90
10300;DHT22;5195;48.562;9.192;2023-07-31T12:02:03;29.20;35.40
10300;DHT22;5195;48.562;9.192;2023-07-31T12:04:29;29.20;35.40
10300;DHT22;5195;48.562;9.192;2023-07-31T12:06:55;29.30;34.20
10300;DHT22;5195;48.562;9.192;2023-07-31T12:09:20;29.10;34.90
10300;DHT22;5195;48.562;9.192;2023-07-31T12:11:46;28.90;35.30
10300;DHT22;5195;48.562;9.192;2023-07-31T12:14:25;28.50;35.40
10300;DHT22;5195;48.562;9.192;2023-07-31T12:17:04;28.20;36.10
10300;DHT22;5195;48.562;9.192;2023-07-31T12:19:20;28.50;36.80
10300;DHT22;5195;48.562;9.192;2023-07-31T12:21:46;28.50;36.80
10300;DHT22;5195;48.562;9.192;2023-07-31T12:24:11;28.40;37.40
10300;DHT22;5195;48.562;9.192;2023-07-31T12:26:38;28.10;38.00
10300;DHT22;5195;48.562;9.192;2023-07-31T12:29:05;28.10;37.40
10300;DHT22;5195;48.562;9.192;2023-07-31T12:31:29;28.10;36.20
10300;DHT22;5195;48.562;9.192;2023-07-31T12:33:55;28.20;36.40
10300;DHT22;5195;48.562;9.192;2023-07-31T12:36:21;28.30;35.70
10300;DHT22;5195;48.562;9.192;2023-07-31T12:38:46;28.40;36.50
10300;DHT22;5195;48.562;9.192;2023-07-31T12:41:12;28.10;37.80
10300;DHT22;5195;48.562;9.192;2023-07-31T12:43:38;28.10;37.70
10300;DHT22;5195;48.562;9.192;2023-07-31T12:46:03;27.90;37.80
10300;DHT22;5195;48.562;9.192;2023-07-31T12:48:29;28.00;37.00
10300;DHT22;5195;48.562;9.192;2023-07-31T12:50:55;27.90;36.90
10300;DHT22;5195;48.562;9.192;2023-07-31T12:53:21;27.60;38.10
10300;DHT22;5195;48.562;9.192;2023-07-31T12:55:47;27.60;38.10
10300;DHT22;5195;48.562;9.192;2023-07-31T12:58:12;27.70;37.30
10300;DHT22;5195;48.562;9.192;2023-07-31T13:00:38;28.00;36.90
10300;DHT22;5195;48.562;9.192;2023-07-31T13:03:06;28.30;37.20
10300;DHT22;5195;48.562;9.192;2023-07-31T13:05:32;28.60;35.50
10300;DHT22;5195;48.562;9.192;2023-07-31T13:07:57;28.60;37.20
10300;DHT22;5195;48.562;9.192;2023-07-31T13:10:24;28.40;37.40
10300;DHT22;5195;48.562;9.192;2023-07-31T13:12:50;28.20;37.70
10300;DHT22;5195;48.562;9.192;2023-07-31T13:15:15;28.40;37.00
10300;DHT22;5195;48.562;9.192;2023-07-31T13:17:41;28.50;37.50
10300;DHT22;5195;48.562;9.192;2023-07-31T13:20:07;28.40;37.80
10300;DHT22;5195;48.562;9.192;2023-07-31T13:22:32;28.50;37.70
10300;DHT22;5195;48.562;9.192;2023-07-31T13:24:58;28.50;38.00
10300;DHT22;5195;48.562;9.192;2023-07-31T13:27:23;28.30;38.30
10300;DHT22;5195;48.562;9.192;2023-07-31T13:29:50;28.30;37.60
10300;DHT22;5195;48.562;9.192;2023-07-31T13:32:16;28.30;37.60
10300;DHT22;5195;48.562;9.192;2023-07-31T13:34:41;28.70;36.70
10300;DHT22;5195;48.562;9.192;2023-07-31T13:37:06;28.90;35.60
10300;DHT22;5195;48.562;9.192;2023-07-31T13:39:32;28.80;36.30
10300;DHT22;5195;48.562;9.192;2023-07-31T13:41:58;28.70;36.10
10300;DHT22;5195;48.562;9.192;2023-07-31T13:44:23;28.80;35.90
10300;DHT22;5195;48.562;9.192;2023-07-31T13:46:49;28.60;36.40
10300;DHT22;5195;48.562;9.192;2023-07-31T13:49:14;28.50;34.80
10300;DHT22;5195;48.562;9.192;2023-07-31T13:51:40;28.50;34.30
10300;DHT22;5195;48.562;9.192;2023-07-31T13:54:05;28.20;35.00
10300;DHT22;5195;48.562;9.192;2023-07-31T13:56:34;27.70;35.70
10300;DHT22;5195;48.562;9.192;2023-07-31T13:58:59;27.60;34.70
10300;DHT22;5195;48.562;9.192;2023-07-31T14:01:26;27.70;34.00
10300;DHT22;5195;48.562;9.192;2023-07-31T14:03:51;27.70;34.00
10300;DHT22;5195;48.562;9.192;2023-07-31T14:06:17;27.40;35.00
10300;DHT22;5195;48.562;9.192;2023-07-31T14:08:42;27.30;35.20
10300;DHT22;5195;48.562;9.192;2023-07-31T14:11:08;27.00;35.80
10300;DHT22;5195;48.562;9.192;2023-07-31T14:13:33;27.00;35.20
10300;DHT22;5195;48.562;9.192;2023-07-31T14:15:59;27.10;35.00
10300;DHT22;5195;48.562;9.192;2023-07-31T14:18:25;27.20;35.00
10300;DHT22;5195;48.562;9.192;2023-07-31T14:20:51;27.20;35.00
10300;DHT22;5195;48.562;9.192;2023-07-31T14:23:16;26.80;35.80
10300;DHT22;5195;48.562;9.192;2023-07-31T14:25:41;26.40;36.70
10300;DHT22;5195;48.562;9.192;2023-07-31T14:28:07;26.40;36.50
10300;DHT22;5195;48.562;9.192;2023-07-31T14:30:33;26.20;37.00
10300;DHT22;5195;48.562;9.192;2023-07-31T14:32:58;25.90;37.50
10300;DHT22;5195;48.562;9.192;2023-07-31T14:35:24;25.90;37.00
10300;DHT22;5195;48.562;9.192;2023-07-31T14:37:49;26.20;37.20
10300;DHT22;5195;48.562;9.192;2023-07-31T14:40:15;26.40;36.60
10300;DHT22;5195;48.562;9.192;2023-07-31T14:42:40;26.30;37.10
10300;DHT22;5195;48.562;9.192;2023-07-31T14:45:06;26.00;37.80
10300;DHT22;5195;48.562;9.192;2023-07-31T14:47:32;26.10;37.90
10300;DHT22;5195;48.562;9.192;2023-07-31T14:49:58;26.00;38.30
10300;DHT22;5195;48.562;9.192;2023-07-31T14:52:23;25.70;38.80
10300;DHT22;5195;48.562;9.192;2023-07-31T14:54:49;25.50;39.20
10300;DHT22;5195;48.562;9.192;2023-07-31T14:57:14;25.30;39.50
10300;DHT22;5195;48.562;9.192;2023-07-31T14:59:40;25.50;38.70
10300;DHT22;5195;48.562;9.192;2023-07-31T15:02:08;25.60;37.50
10300;DHT22;5195;48.562;9.192;2023-07-31T15:04:32;25.60;37.50
10300;DHT22;5195;48.562;9.192;2023-07-31T15:06:58;25.50;38.00
10300;DHT22;5195;48.562;9.192;2023-07-31T15:09:24;25.30;38.50
10300;DHT22;5195;48.562;9.192;2023-07-31T15:11:49;25.10;38.90
10300;DHT22;5195;48.562;9.192;2023-07-31T15:14:16;25.20;38.40
10300;DHT22;5195;48.562;9.192;2023-07-31T15:16:43;25.50;38.20
10300;DHT22;5195;48.562;9.192;2023-07-31T15:19:09;25.70;38.20
10300;DHT22;5195;48.562;9.192;2023-07-31T15:21:35;25.90;38.20
10300;DHT22;5195;48.562;9.192;2023-07-31T15:24:00;25.80;38.60
10300;DHT22;5195;48.562;9.192;2023-07-31T15:26:26;25.90;38.80
10300;DHT22;5195;48.562;9.192;2023-07-31T15:28:56;25.70;39.10
10300;DHT22;5195;48.562;9.192;2023-07-31T15:31:20;25.50;39.80
10300;DHT22;5195;48.562;9.192;2023-07-31T15:33:47;25.10;40.30
10300;DHT22;5195;48.562;9.192;2023-07-31T15:36:12;25.10;40.30
10300;DHT22;5195;48.562;9.192;2023-07-31T15:38:38;25.30;40.20
10300;DHT22;5195;48.562;9.192;2023-07-31T15:41:03;25.60;39.90
10300;DHT22;5195;48.562;9.192;2023-07-31T15:43:29;25.60;39.90